createdAt,value
2022-08-26T00:00:39.198Z,21.63
2022-08-26T00:01:39.178Z,21.61
2022-08-26T00:02:39.346Z,21.69
2022-08-26T00:03:39.231Z,21.60
2022-08-26T00:04:39.173Z,21.66
2022-08-26T00:05:39.158Z,21.63
2022-08-26T00:06:39.152Z,21.60
2022-08-26T00:07:39.142Z,21.61
2022-08-26T00:08:39.150Z,21.66
2022-08-26T00:09:40.272Z,21.57
2022-08-26T00:10:39.126Z,21.61
2022-08-26T00:11:39.107Z,21.60
2022-08-26T00:12:39.110Z,21.64
2022-08-26T00:13:39.126Z,21.60
2022-08-26T00:14:39.101Z,21.59
2022-08-26T00:15:39.082Z,21.54
2022-08-26T00:16:40.943Z,21.53
2022-08-26T00:17:40.401Z,21.53
2022-08-26T00:18:40.778Z,21.51
2022-08-26T00:19:39.079Z,21.51
2022-08-26T00:20:39.049Z,21.50
2022-08-26T00:21:39.047Z,21.46
2022-08-26T00:22:39.045Z,21.50
2022-08-26T00:23:39.038Z,21.50
2022-08-26T00:24:39.053Z,21.44
2022-08-26T00:25:39.027Z,21.46
2022-08-26T00:26:39.018Z,21.45
2022-08-26T00:27:39.001Z,21.46
2022-08-26T00:28:38.997Z,21.42
2022-08-26T00:29:39.010Z,21.42
2022-08-26T00:30:38.981Z,21.41
2022-08-26T00:31:39.041Z,21.42
2022-08-26T00:32:38.974Z,21.45
2022-08-26T00:33:38.975Z,21.48
2022-08-26T00:34:38.966Z,21.42
2022-08-26T00:35:38.950Z,21.42
2022-08-26T00:36:40.735Z,21.51
2022-08-26T00:37:38.942Z,21.48
2022-08-26T00:38:38.917Z,21.48
2022-08-26T00:39:38.975Z,21.53
2022-08-26T00:40:38.927Z,21.42
2022-08-26T00:41:38.904Z,21.46
2022-08-26T00:42:38.888Z,21.50
2022-08-26T00:43:47.759Z,21.48
2022-08-26T00:44:39.889Z,21.48
2022-08-26T00:45:38.949Z,21.45
2022-08-26T00:46:38.872Z,21.56
2022-08-26T00:47:38.868Z,21.48
2022-08-26T00:48:38.852Z,21.45
2022-08-26T00:49:38.852Z,21.51
2022-08-26T00:50:38.848Z,21.39
2022-08-26T00:51:38.852Z,21.42
2022-08-26T00:52:38.851Z,21.45
2022-08-26T00:53:38.824Z,21.48
2022-08-26T00:54:38.818Z,21.48
2022-08-26T00:55:38.810Z,21.39
2022-08-26T00:56:38.830Z,21.44
2022-08-26T00:57:38.795Z,21.57
2022-08-26T00:58:38.801Z,21.44
2022-08-26T00:59:38.973Z,21.41
2022-08-26T01:00:38.833Z,21.46
2022-08-26T01:01:38.787Z,21.41
2022-08-26T01:02:38.804Z,21.39
2022-08-26T01:03:38.768Z,21.36
2022-08-26T01:04:38.753Z,21.39
2022-08-26T01:05:38.739Z,21.32
2022-08-26T01:06:38.751Z,21.38
2022-08-26T01:07:38.758Z,21.35
2022-08-26T01:08:38.723Z,21.29
2022-08-26T01:09:38.722Z,21.23
2022-08-26T01:10:38.702Z,21.19
2022-08-26T01:11:38.706Z,21.26
2022-08-26T01:12:40.204Z,21.17
2022-08-26T01:13:38.682Z,21.06
2022-08-26T01:14:38.679Z,21.13
2022-08-26T01:15:38.669Z,21.04
2022-08-26T01:16:38.741Z,21.08
2022-08-26T01:17:38.658Z,21.01
2022-08-26T01:18:38.666Z,21.05
2022-08-26T01:19:38.642Z,20.99
2022-08-26T01:20:38.639Z,20.86
2022-08-26T01:21:40.536Z,20.89
2022-08-26T01:22:38.622Z,20.96
2022-08-26T01:23:38.622Z,20.93
2022-08-26T01:24:38.607Z,20.83
2022-08-26T01:25:38.591Z,20.91
2022-08-26T01:26:38.602Z,20.86
2022-08-26T01:27:38.601Z,20.81
2022-08-26T01:28:38.606Z,20.86
2022-08-26T01:29:38.602Z,20.87
2022-08-26T01:30:38.577Z,20.89
2022-08-26T01:31:39.081Z,20.77
2022-08-26T01:32:38.963Z,20.72
2022-08-26T01:33:42.205Z,20.80
2022-08-26T01:34:38.530Z,20.81
2022-08-26T01:35:38.535Z,20.74
2022-08-26T01:36:38.534Z,20.89
2022-08-26T01:37:39.102Z,20.79
2022-08-26T01:38:38.514Z,20.80
2022-08-26T01:39:38.513Z,20.80
2022-08-26T01:40:38.511Z,20.84
2022-08-26T01:41:38.498Z,20.86
2022-08-26T01:42:38.498Z,20.76
2022-08-26T01:43:38.483Z,20.77
2022-08-26T01:44:38.470Z,20.79
2022-08-26T01:45:38.521Z,20.80
2022-08-26T01:46:38.474Z,20.79
2022-08-26T01:47:38.475Z,20.81
2022-08-26T01:48:38.446Z,20.74
2022-08-26T01:49:38.442Z,20.74
2022-08-26T01:50:38.433Z,20.79
2022-08-26T01:51:38.421Z,20.76
2022-08-26T01:52:38.430Z,20.65
2022-08-26T01:53:38.414Z,20.79
2022-08-26T01:54:38.414Z,20.72
2022-08-26T01:55:38.405Z,20.71
2022-08-26T01:56:38.394Z,20.69
2022-08-26T01:57:38.419Z,20.71
2022-08-26T01:58:38.382Z,20.69
2022-08-26T01:59:38.370Z,20.69
2022-08-26T02:00:38.452Z,20.76
2022-08-26T02:01:38.361Z,20.74
2022-08-26T02:02:38.373Z,20.64
2022-08-26T02:03:38.727Z,20.77
2022-08-26T02:04:38.393Z,20.76
2022-08-26T02:05:38.344Z,20.80
2022-08-26T02:06:38.332Z,20.84
2022-08-26T02:07:38.346Z,20.80
2022-08-26T02:08:38.341Z,20.77
2022-08-26T02:09:38.437Z,20.83
2022-08-26T02:10:38.308Z,20.77
2022-08-26T02:11:38.309Z,20.77
2022-08-26T02:12:38.293Z,20.69
2022-08-26T02:13:38.300Z,20.64
2022-08-26T02:14:44.009Z,20.58
2022-08-26T02:15:38.277Z,20.69
2022-08-26T02:16:38.284Z,20.65
2022-08-26T02:17:38.264Z,20.56
2022-08-26T02:18:38.276Z,20.64
2022-08-26T02:19:38.249Z,20.50
2022-08-26T02:20:38.252Z,20.43
2022-08-26T02:21:38.237Z,20.43
2022-08-26T02:22:38.232Z,20.30
2022-08-26T02:23:38.254Z,20.34
2022-08-26T02:24:38.224Z,20.38
2022-08-26T02:25:38.217Z,20.34
2022-08-26T02:26:38.213Z,20.33
2022-08-26T02:27:38.203Z,20.39
2022-08-26T02:28:38.200Z,20.18
2022-08-26T02:29:38.189Z,20.20
2022-08-26T02:30:38.189Z,20.13
2022-08-26T02:31:38.246Z,20.09
2022-08-26T02:32:38.171Z,20.20
2022-08-26T02:33:38.162Z,19.98
2022-08-26T02:34:39.156Z,19.93
2022-08-26T02:35:38.176Z,19.87
2022-08-26T02:36:38.140Z,19.76
2022-08-26T02:37:38.136Z,19.84
2022-08-26T02:38:38.132Z,19.80
2022-08-26T02:39:38.124Z,19.80
2022-08-26T02:40:38.139Z,19.83
2022-08-26T02:41:44.920Z,19.78
2022-08-26T02:42:39.100Z,19.83
2022-08-26T02:43:38.095Z,19.72
2022-08-26T02:44:38.091Z,19.69
2022-08-26T02:45:38.087Z,19.66
2022-08-26T02:46:38.163Z,19.69
2022-08-26T02:47:38.068Z,19.69
2022-08-26T02:48:38.061Z,19.68
2022-08-26T02:49:38.055Z,19.61
2022-08-26T02:50:38.052Z,19.60
2022-08-26T02:51:38.065Z,19.55
2022-08-26T02:52:38.035Z,19.50
2022-08-26T02:53:38.031Z,19.57
2022-08-26T02:54:38.024Z,19.47
2022-08-26T02:55:38.008Z,19.57
2022-08-26T02:56:38.031Z,19.51
2022-08-26T02:57:38.004Z,19.54
2022-08-26T02:58:37.992Z,19.50
2022-08-26T02:59:37.992Z,19.50
2022-08-26T03:00:38.010Z,19.51
2022-08-26T03:01:38.016Z,19.48
2022-08-26T03:02:37.981Z,19.51
2022-08-26T03:03:37.959Z,19.57
2022-08-26T03:04:37.947Z,19.50
2022-08-26T03:05:37.943Z,19.43
2022-08-26T03:06:37.939Z,19.46
2022-08-26T03:07:37.959Z,19.53
2022-08-26T03:08:37.923Z,19.46
2022-08-26T03:09:37.924Z,19.47
2022-08-26T03:10:37.907Z,19.39
2022-08-26T03:11:37.978Z,19.38
2022-08-26T03:12:37.953Z,19.35
2022-08-26T03:13:37.911Z,19.31
2022-08-26T03:14:37.903Z,19.25
2022-08-26T03:15:37.878Z,19.32
2022-08-26T03:16:37.968Z,19.35
2022-08-26T03:17:37.884Z,19.29
2022-08-26T03:18:37.855Z,19.32
2022-08-26T03:19:37.851Z,19.18
2022-08-26T03:20:37.847Z,19.20
2022-08-26T03:21:37.832Z,19.06
2022-08-26T03:22:37.828Z,19.15
2022-08-26T03:23:37.840Z,19.08
2022-08-26T03:24:37.820Z,19.13
2022-08-26T03:25:37.799Z,19.11
2022-08-26T03:26:37.808Z,19.11
2022-08-26T03:27:37.795Z,19.11
2022-08-26T03:28:37.811Z,19.10
2022-08-26T03:29:37.819Z,18.98
2022-08-26T03:30:37.783Z,19.06
2022-08-26T03:31:37.817Z,19.01
2022-08-26T03:32:37.774Z,19.05
2022-08-26T03:33:37.783Z,18.99
2022-08-26T03:34:37.760Z,19.02
2022-08-26T03:35:37.751Z,18.94
2022-08-26T03:36:37.757Z,18.94
2022-08-26T03:37:37.734Z,18.91
2022-08-26T03:38:37.740Z,18.90
2022-08-26T03:39:37.738Z,18.99
2022-08-26T03:40:37.707Z,18.97
2022-08-26T03:41:37.711Z,18.94
2022-08-26T03:42:37.702Z,18.92
2022-08-26T03:43:37.690Z,18.95
2022-08-26T03:44:37.690Z,18.99
2022-08-26T03:45:37.694Z,19.02
2022-08-26T03:46:37.733Z,18.98
2022-08-26T03:47:37.672Z,19.05
2022-08-26T03:48:37.663Z,19.05
2022-08-26T03:49:37.671Z,18.97
2022-08-26T03:50:37.658Z,18.99
2022-08-26T03:51:38.868Z,19.08
2022-08-26T03:52:41.802Z,19.08
2022-08-26T03:53:39.627Z,18.99
2022-08-26T03:54:37.623Z,18.98
2022-08-26T03:55:37.623Z,18.98
2022-08-26T03:56:37.607Z,19.02
2022-08-26T03:57:37.603Z,19.25
2022-08-26T03:58:37.598Z,19.14
2022-08-26T03:59:37.575Z,19.25
2022-08-26T04:00:37.595Z,19.18
2022-08-26T04:01:37.658Z,19.10
2022-08-26T04:02:37.589Z,19.18
2022-08-26T04:03:37.570Z,19.31
2022-08-26T04:04:37.558Z,19.29
2022-08-26T04:05:37.559Z,19.40
2022-08-26T04:06:37.547Z,19.32
2022-08-26T04:07:37.534Z,19.24
2022-08-26T04:08:37.546Z,19.24
2022-08-26T04:09:37.530Z,19.32
2022-08-26T04:10:37.527Z,19.15
2022-08-26T04:11:38.620Z,19.23
2022-08-26T04:12:37.507Z,19.14
2022-08-26T04:13:37.514Z,19.17
2022-08-26T04:14:37.779Z,19.14
2022-08-26T04:15:37.491Z,19.17
2022-08-26T04:16:37.474Z,19.13
2022-08-26T04:17:37.458Z,19.06
2022-08-26T04:18:37.467Z,19.06
2022-08-26T04:19:38.470Z,19.05
2022-08-26T04:20:37.434Z,19.01
2022-08-26T04:21:37.435Z,18.95
2022-08-26T04:22:37.435Z,18.87
2022-08-26T04:23:47.317Z,18.90
2022-08-26T04:24:38.451Z,18.95
2022-08-26T04:25:37.406Z,18.86
2022-08-26T04:26:39.498Z,18.84
2022-08-26T04:27:38.402Z,18.80
2022-08-26T04:28:37.398Z,18.86
2022-08-26T04:29:37.391Z,18.86
2022-08-26T04:30:37.394Z,18.83
2022-08-26T04:31:37.445Z,18.79
2022-08-26T04:32:37.358Z,18.65
2022-08-26T04:33:37.350Z,18.73
2022-08-26T04:34:37.371Z,18.65
2022-08-26T04:35:37.347Z,18.61
2022-08-26T04:36:37.540Z,18.62
2022-08-26T04:37:37.334Z,18.70
2022-08-26T04:38:37.321Z,18.61
2022-08-26T04:39:37.318Z,18.72
2022-08-26T04:40:37.310Z,18.61
2022-08-26T04:41:37.295Z,18.59
2022-08-26T04:42:37.311Z,18.65
2022-08-26T04:43:37.282Z,18.59
2022-08-26T04:44:37.278Z,18.54
2022-08-26T04:45:37.382Z,18.52
2022-08-26T04:46:39.975Z,18.47
2022-08-26T04:47:38.292Z,18.55
2022-08-26T04:48:37.263Z,18.54
2022-08-26T04:49:37.258Z,18.55
2022-08-26T04:50:37.243Z,18.61
2022-08-26T04:51:37.233Z,18.64
2022-08-26T04:52:37.243Z,18.62
2022-08-26T04:53:37.214Z,18.59
2022-08-26T04:54:37.210Z,18.49
2022-08-26T04:55:39.700Z,18.55
2022-08-26T04:56:38.198Z,18.61
2022-08-26T04:57:37.187Z,18.49
2022-08-26T04:58:37.206Z,18.55
2022-08-26T04:59:39.331Z,18.59
2022-08-26T05:00:38.172Z,18.49
2022-08-26T05:01:39.687Z,18.62
2022-08-26T05:02:37.155Z,18.55
2022-08-26T05:03:37.185Z,18.58
2022-08-26T05:04:37.162Z,18.52
2022-08-26T05:05:37.144Z,18.52
2022-08-26T05:06:37.295Z,18.47
2022-08-26T05:07:37.122Z,18.44
2022-08-26T05:08:37.119Z,18.46
2022-08-26T05:09:37.154Z,18.50
2022-08-26T05:10:37.112Z,18.52
2022-08-26T05:11:37.094Z,18.47
2022-08-26T05:12:37.081Z,18.50
2022-08-26T05:13:37.087Z,18.58
2022-08-26T05:14:37.093Z,18.65
2022-08-26T05:15:37.112Z,18.62
2022-08-26T05:16:37.056Z,18.76
2022-08-26T05:17:37.045Z,18.82
2022-08-26T05:18:37.046Z,18.80
2022-08-26T05:19:37.042Z,18.73
2022-08-26T05:20:37.046Z,18.84
2022-08-26T05:21:37.034Z,18.82
2022-08-26T05:22:37.018Z,18.76
2022-08-26T05:23:37.006Z,18.67
2022-08-26T05:24:37.018Z,18.65
2022-08-26T05:25:37.035Z,18.62
2022-08-26T05:26:37.003Z,18.57
2022-08-26T05:27:36.990Z,18.55
2022-08-26T05:28:36.982Z,18.57
2022-08-26T05:29:36.974Z,18.65
2022-08-26T05:30:37.987Z,18.72
2022-08-26T05:31:36.963Z,18.73
2022-08-26T05:32:36.958Z,18.80
2022-08-26T05:33:36.962Z,18.90
2022-08-26T05:34:36.934Z,18.99
2022-08-26T05:35:36.934Z,18.97
2022-08-26T05:36:37.130Z,19.08
2022-08-26T05:37:36.919Z,19.08
2022-08-26T05:38:36.914Z,19.13
2022-08-26T05:39:36.923Z,19.29
2022-08-26T05:40:36.953Z,19.24
2022-08-26T05:41:38.446Z,19.32
2022-08-26T05:42:36.886Z,19.32
2022-08-26T05:43:36.874Z,19.40
2022-08-26T05:44:55.703Z,19.46
2022-08-26T05:45:40.226Z,19.43
2022-08-26T05:46:36.907Z,19.36
2022-08-26T05:47:36.868Z,19.25
2022-08-26T05:48:36.847Z,19.28
2022-08-26T05:49:36.842Z,19.32
2022-08-26T05:50:37.826Z,19.39
2022-08-26T05:51:36.834Z,19.40
2022-08-26T05:52:36.843Z,19.46
2022-08-26T05:53:36.813Z,19.46
2022-08-26T05:54:36.814Z,19.54
2022-08-26T05:55:36.803Z,19.58
2022-08-26T05:56:36.790Z,19.72
2022-08-26T05:57:40.463Z,19.72
2022-08-26T05:58:38.774Z,19.78
2022-08-26T05:59:36.769Z,19.88
2022-08-26T06:00:36.765Z,19.86
2022-08-26T06:01:36.783Z,20.02
2022-08-26T06:02:36.789Z,19.98
2022-08-26T06:03:36.753Z,20.05
2022-08-26T06:04:36.739Z,20.13
2022-08-26T06:05:39.182Z,20.02
2022-08-26T06:06:37.726Z,20.21
2022-08-26T06:07:36.726Z,20.20
2022-08-26T06:08:36.735Z,20.27
2022-08-26T06:09:36.726Z,20.35
2022-08-26T06:10:36.697Z,20.35
2022-08-26T06:11:36.714Z,20.47
2022-08-26T06:12:36.673Z,20.53
2022-08-26T06:13:36.682Z,20.54
2022-08-26T06:14:36.681Z,20.68
2022-08-26T06:15:37.745Z,20.59
2022-08-26T06:16:36.655Z,20.68
2022-08-26T06:17:36.654Z,20.79
2022-08-26T06:18:36.634Z,20.87
2022-08-26T06:19:36.661Z,21.01
2022-08-26T06:20:36.637Z,20.99
2022-08-26T06:21:36.626Z,21.26
2022-08-26T06:22:36.617Z,21.32
2022-08-26T06:23:36.617Z,21.50
2022-08-26T06:24:36.597Z,21.66
2022-08-26T06:25:36.605Z,21.88
2022-08-26T06:26:36.700Z,22.02
2022-08-26T06:27:36.581Z,22.19
2022-08-26T06:28:36.569Z,22.50
2022-08-26T06:29:36.572Z,22.74
2022-08-26T06:30:36.569Z,22.83
2022-08-26T06:31:36.557Z,23.09
2022-08-26T06:32:36.549Z,23.32
2022-08-26T06:33:36.558Z,23.55
2022-08-26T06:34:36.521Z,23.80
2022-08-26T06:35:36.541Z,24.04
2022-08-26T06:36:36.522Z,24.24
2022-08-26T06:37:36.517Z,24.41
2022-08-26T06:38:36.552Z,24.56
2022-08-26T06:39:36.507Z,24.60
2022-08-26T06:40:36.527Z,24.85
2022-08-26T06:41:39.085Z,25.01
2022-08-26T06:42:38.481Z,25.16
2022-08-26T06:43:36.474Z,25.35
2022-08-26T06:44:36.469Z,25.46
2022-08-26T06:45:36.461Z,25.22
2022-08-26T06:46:36.554Z,25.32
2022-08-26T06:47:36.441Z,25.35
2022-08-26T06:48:36.450Z,25.49
2022-08-26T06:49:36.501Z,25.53
2022-08-26T06:50:36.426Z,25.67
2022-08-26T06:51:36.465Z,25.67
2022-08-26T06:52:36.429Z,25.52
2022-08-26T06:53:36.413Z,25.52
2022-08-26T06:54:36.401Z,25.44
2022-08-26T06:55:36.400Z,25.43
2022-08-26T06:56:36.385Z,25.35
2022-08-26T06:57:37.753Z,25.50
2022-08-26T06:58:36.377Z,25.37
2022-08-26T06:59:36.389Z,25.15
2022-08-26T07:00:36.369Z,25.10
2022-08-26T07:01:36.403Z,24.60
2022-08-26T07:02:36.368Z,23.77
2022-08-26T07:03:39.494Z,23.57
2022-08-26T07:04:36.357Z,23.34
2022-08-26T07:05:36.325Z,23.31
2022-08-26T07:06:36.327Z,23.19
2022-08-26T07:07:36.331Z,23.01
2022-08-26T07:08:36.311Z,22.99
2022-08-26T07:09:36.308Z,23.12
2022-08-26T07:10:36.307Z,23.07
2022-08-26T07:11:37.295Z,22.78
2022-08-26T07:12:36.326Z,22.82
2022-08-26T07:13:36.275Z,22.72
2022-08-26T07:14:37.275Z,22.72
2022-08-26T07:15:36.295Z,22.77
2022-08-26T07:16:36.255Z,22.93
2022-08-26T07:17:36.282Z,23.01
2022-08-26T07:18:36.243Z,22.97
2022-08-26T07:19:36.235Z,22.96
2022-08-26T07:20:36.223Z,23.20
2022-08-26T07:21:36.227Z,23.15
2022-08-26T07:22:36.222Z,23.19
2022-08-26T07:23:36.227Z,23.27
2022-08-26T07:24:36.212Z,23.35
2022-08-26T07:25:36.211Z,23.42
2022-08-26T07:26:36.221Z,23.24
2022-08-26T07:27:36.189Z,23.35
2022-08-26T07:28:36.223Z,23.52
2022-08-26T07:29:36.231Z,23.53
2022-08-26T07:30:36.202Z,23.62
2022-08-26T07:31:39.257Z,23.82
2022-08-26T07:32:36.152Z,23.92
2022-08-26T07:33:36.135Z,24.16
2022-08-26T07:34:36.142Z,24.23
2022-08-26T07:35:36.120Z,24.37
2022-08-26T07:36:36.122Z,24.47
2022-08-26T07:37:39.320Z,24.47
2022-08-26T07:38:36.106Z,24.54
2022-08-26T07:39:36.129Z,24.68
2022-08-26T07:40:36.117Z,24.82
2022-08-26T07:41:36.103Z,24.73
2022-08-26T07:42:36.094Z,24.54
2022-08-26T07:43:36.074Z,24.52
2022-08-26T07:44:36.067Z,24.52
2022-08-26T07:45:36.086Z,24.47
2022-08-26T07:46:36.059Z,24.75
2022-08-26T07:47:36.043Z,24.77
2022-08-26T07:48:36.051Z,24.98
2022-08-26T07:49:36.091Z,24.90
2022-08-26T07:50:49.294Z,24.83
2022-08-26T07:51:37.024Z,24.92
2022-08-26T07:52:36.026Z,25.07
2022-08-26T07:53:36.035Z,25.20
2022-08-26T07:54:36.014Z,25.24
2022-08-26T07:55:36.013Z,25.35
2022-08-26T07:56:35.991Z,25.32
2022-08-26T07:57:35.979Z,25.35
2022-08-26T07:58:35.984Z,25.32
2022-08-26T07:59:35.978Z,25.32
2022-08-26T08:00:35.967Z,25.49
2022-08-26T08:01:35.976Z,25.64
2022-08-26T08:02:35.949Z,25.72
2022-08-26T08:03:35.947Z,25.79
2022-08-26T08:04:36.001Z,25.93
2022-08-26T08:05:35.945Z,26.05
2022-08-26T08:06:35.971Z,26.20
2022-08-26T08:07:44.479Z,26.24
2022-08-26T08:08:36.918Z,26.29
2022-08-26T08:09:35.899Z,26.40
2022-08-26T08:10:35.918Z,26.50
2022-08-26T08:11:35.894Z,26.57
2022-08-26T08:12:35.903Z,26.83
2022-08-26T08:13:35.874Z,26.98
2022-08-26T08:14:35.870Z,27.14
2022-08-26T08:15:35.862Z,27.20
2022-08-26T08:16:39.111Z,27.23
2022-08-26T08:17:36.868Z,27.43
2022-08-26T08:18:35.837Z,27.73
2022-08-26T08:19:39.011Z,28.16
2022-08-26T08:20:35.835Z,28.17
2022-08-26T08:21:35.842Z,28.46
2022-08-26T08:22:35.826Z,28.59
2022-08-26T08:23:35.819Z,28.56
2022-08-26T08:24:35.802Z,28.84
2022-08-26T08:25:35.802Z,29.04
2022-08-26T08:26:35.797Z,29.20
2022-08-26T08:27:35.806Z,29.56
2022-08-26T08:28:35.773Z,29.75
2022-08-26T08:29:35.773Z,30.03
2022-08-26T08:30:35.828Z,30.12
2022-08-26T08:32:37.767Z,29.41
2022-08-26T08:33:35.761Z,29.49
2022-08-26T08:34:35.782Z,29.74
2022-08-26T08:35:35.762Z,29.94
2022-08-26T08:36:36.214Z,30.23
2022-08-26T08:37:35.713Z,30.24
2022-08-26T08:38:35.714Z,30.54
2022-08-26T08:39:35.721Z,30.68
2022-08-26T08:40:35.820Z,30.46
2022-08-26T08:41:36.709Z,30.53
2022-08-26T08:42:35.689Z,30.69
2022-08-26T08:43:37.818Z,30.45
2022-08-26T08:44:35.700Z,30.67
2022-08-26T08:45:37.141Z,30.98
2022-08-26T08:46:36.700Z,31.17
2022-08-26T08:47:35.649Z,31.13
2022-08-26T08:48:35.649Z,31.39
2022-08-26T08:49:35.644Z,31.42
2022-08-26T08:50:35.645Z,31.38
2022-08-26T08:51:35.625Z,31.15
2022-08-26T08:52:36.642Z,31.13
2022-08-26T08:53:35.615Z,31.33
2022-08-26T08:54:35.613Z,31.62
2022-08-26T08:55:35.625Z,32.05
2022-08-26T08:56:35.601Z,32.55
2022-08-26T08:57:35.608Z,32.84
2022-08-26T08:58:35.601Z,33.19
2022-08-26T08:59:35.578Z,33.53
2022-08-26T09:00:39.155Z,33.23
2022-08-26T09:01:36.603Z,33.11
2022-08-26T09:02:35.605Z,33.65
2022-08-26T09:03:35.566Z,34.04
2022-08-26T09:04:35.552Z,34.22
2022-08-26T09:05:35.551Z,33.89
2022-08-26T09:06:35.550Z,34.27
2022-08-26T09:07:36.757Z,34.72
2022-08-26T09:08:36.595Z,35.29
2022-08-26T09:09:35.525Z,34.63
2022-08-26T09:10:35.521Z,34.05
2022-08-26T09:11:35.500Z,34.22
2022-08-26T09:12:35.508Z,33.60
2022-08-26T09:13:35.518Z,33.65
2022-08-26T09:14:35.489Z,33.46
2022-08-26T09:15:35.494Z,34.16
2022-08-26T09:16:35.566Z,34.79
2022-08-26T09:17:35.472Z,35.51
2022-08-26T09:18:35.481Z,35.82
2022-08-26T09:19:35.464Z,36.41
2022-08-26T09:20:35.466Z,36.14
2022-08-26T09:21:35.465Z,35.63
2022-08-26T09:22:35.454Z,34.69
2022-08-26T09:23:35.942Z,34.79
2022-08-26T09:24:39.571Z,35.47
2022-08-26T09:25:37.432Z,35.57
2022-08-26T09:26:35.430Z,36.08
2022-08-26T09:27:35.416Z,36.72
2022-08-26T09:28:35.417Z,36.99
2022-08-26T09:29:35.436Z,36.85
2022-08-26T09:30:35.452Z,36.58
2022-08-26T09:31:35.532Z,36.65
2022-08-26T09:32:35.389Z,37.16
2022-08-26T09:33:35.387Z,37.23
2022-08-26T09:34:35.384Z,37.33
2022-08-26T09:35:35.394Z,37.38
2022-08-26T09:36:39.200Z,37.29
2022-08-26T09:37:36.434Z,37.47
2022-08-26T09:38:35.358Z,37.71
2022-08-26T09:39:35.366Z,37.89
2022-08-26T09:40:35.494Z,38.03
2022-08-26T09:41:35.365Z,38.27
2022-08-26T09:42:35.369Z,38.42
2022-08-26T09:43:35.419Z,38.23
2022-08-26T09:44:35.349Z,37.85
2022-08-26T09:45:35.365Z,37.28
2022-08-26T09:46:35.451Z,37.36
2022-08-26T09:47:35.324Z,37.33
2022-08-26T09:48:36.037Z,37.68
2022-08-26T09:49:36.371Z,38.18
2022-08-26T09:50:36.320Z,38.57
2022-08-26T09:51:35.320Z,38.76
2022-08-26T09:52:35.305Z,38.67
2022-08-26T09:53:35.316Z,38.27
2022-08-26T09:54:35.297Z,37.67
2022-08-26T09:55:35.285Z,37.23
2022-08-26T09:56:35.297Z,36.73
2022-08-26T09:57:35.283Z,36.70
2022-08-26T09:58:35.277Z,36.94
2022-08-26T09:59:35.322Z,37.16
2022-08-26T10:00:35.273Z,37.21
2022-08-26T10:01:35.363Z,37.16
2022-08-26T10:02:35.262Z,37.50
2022-08-26T10:03:35.263Z,37.68
2022-08-26T10:04:35.299Z,37.83
2022-08-26T10:05:35.277Z,38.41
2022-08-26T10:06:35.241Z,38.73
2022-08-26T10:07:36.232Z,39.08
2022-08-26T10:08:35.233Z,39.43
2022-08-26T10:09:35.225Z,39.58
2022-08-26T10:10:35.230Z,39.69
2022-08-26T10:11:35.209Z,39.77
2022-08-26T10:12:35.214Z,39.90
2022-08-26T10:13:35.197Z,39.65
2022-08-26T10:14:35.218Z,39.77
2022-08-26T10:15:35.197Z,40.21
2022-08-26T10:16:35.259Z,40.21
2022-08-26T10:17:35.173Z,40.40
2022-08-26T10:18:35.184Z,40.68
2022-08-26T10:19:41.770Z,40.65
2022-08-26T10:20:36.180Z,40.05
2022-08-26T10:21:35.249Z,39.54
2022-08-26T10:22:35.160Z,38.95
2022-08-26T10:23:35.157Z,38.70
2022-08-26T10:24:35.177Z,38.96
2022-08-26T10:25:35.257Z,39.52
2022-08-26T10:26:35.144Z,40.45
2022-08-26T10:27:35.137Z,40.18
2022-08-26T10:28:35.145Z,39.70
2022-08-26T10:29:35.139Z,39.80
2022-08-26T10:30:35.145Z,39.99
2022-08-26T10:31:38.235Z,39.88
2022-08-26T10:32:36.113Z,40.02
2022-08-26T10:33:36.138Z,40.24
2022-08-26T10:34:35.118Z,40.42
2022-08-26T10:35:36.121Z,40.29
2022-08-26T10:36:43.083Z,40.29
2022-08-26T10:37:37.162Z,40.80
2022-08-26T10:38:35.089Z,40.84
2022-08-26T10:39:35.109Z,41.08
2022-08-26T10:40:35.184Z,41.03
2022-08-26T10:41:35.082Z,40.81
2022-08-26T10:42:35.109Z,40.81
2022-08-26T10:43:35.088Z,41.24
2022-08-26T10:44:35.098Z,40.90
2022-08-26T10:45:35.116Z,41.08
2022-08-26T10:46:35.090Z,41.31
2022-08-26T10:47:35.062Z,41.12
2022-08-26T10:48:35.239Z,41.43
2022-08-26T10:49:35.057Z,41.77
2022-08-26T10:50:35.053Z,41.73
2022-08-26T10:51:35.061Z,42.32
2022-08-26T10:52:35.053Z,42.95
2022-08-26T10:53:35.069Z,43.33
2022-08-26T10:54:35.045Z,43.94
2022-08-26T10:55:35.185Z,44.28
2022-08-26T10:56:35.034Z,45.12
2022-08-26T10:57:35.038Z,45.93
2022-08-26T10:58:35.037Z,46.38
2022-08-26T10:59:35.046Z,46.98
2022-08-26T11:00:35.024Z,47.50
2022-08-26T11:01:35.052Z,48.13
2022-08-26T11:02:36.054Z,48.78
2022-08-26T11:03:35.021Z,49.23
2022-08-26T11:04:35.288Z,49.64
2022-08-26T11:05:35.004Z,50.40
2022-08-26T11:06:36.995Z,50.73
2022-08-26T11:07:35.044Z,51.18
2022-08-26T11:08:34.989Z,51.19
2022-08-26T11:09:35.002Z,50.85
2022-08-26T11:10:35.022Z,50.14
2022-08-26T11:11:34.984Z,49.77
2022-08-26T11:12:35.009Z,49.47
2022-08-26T11:13:38.705Z,49.52
2022-08-26T11:14:45.990Z,49.98
2022-08-26T11:15:36.009Z,50.24
2022-08-26T11:16:35.019Z,50.36
2022-08-26T11:17:34.995Z,50.15
2022-08-26T11:18:34.978Z,50.11
2022-08-26T11:19:57.106Z,50.01
2022-08-26T11:20:36.978Z,50.07
2022-08-26T11:21:35.975Z,49.01
2022-08-26T11:22:34.970Z,47.96
2022-08-26T11:23:34.964Z,47.93
2022-08-26T11:24:34.961Z,48.41
2022-08-26T11:25:34.948Z,49.01
2022-08-26T11:26:36.289Z,49.44
2022-08-26T11:27:35.969Z,49.85
2022-08-26T11:28:34.950Z,50.24
2022-08-26T11:29:34.936Z,50.19
2022-08-26T11:30:34.940Z,50.08
2022-08-26T11:31:34.984Z,50.15
2022-08-26T11:32:34.958Z,50.24
2022-08-26T11:33:34.937Z,50.22
2022-08-26T11:34:34.936Z,50.50
2022-08-26T11:35:34.932Z,50.84
2022-08-26T11:36:34.912Z,50.29
2022-08-26T11:37:34.933Z,49.85
2022-08-26T11:38:34.930Z,49.31
2022-08-26T11:39:36.845Z,49.02
2022-08-26T11:40:34.926Z,48.62
2022-08-26T11:41:34.904Z,48.68
2022-08-26T11:42:34.926Z,48.89
2022-08-26T11:43:34.918Z,48.95
2022-08-26T11:44:34.903Z,48.71
2022-08-26T11:45:34.931Z,48.49
2022-08-26T11:46:34.886Z,47.91
2022-08-26T11:47:34.886Z,47.72
2022-08-26T11:48:34.894Z,47.28
2022-08-26T11:49:34.915Z,46.54
2022-08-26T11:50:34.886Z,45.65
2022-08-26T11:51:38.221Z,44.96
2022-08-26T11:52:35.866Z,44.43
2022-08-26T11:53:34.902Z,43.73
2022-08-26T11:54:35.624Z,43.04
2022-08-26T11:55:34.867Z,42.57
2022-08-26T11:56:34.841Z,42.35
2022-08-26T11:57:34.850Z,42.16
2022-08-26T11:58:34.837Z,41.90
2022-08-26T12:00:34.848Z,41.52
2022-08-26T12:01:34.826Z,41.37
2022-08-26T12:02:34.823Z,41.21
2022-08-26T12:03:34.905Z,40.96
2022-08-26T12:04:35.890Z,40.47
2022-08-26T12:05:34.842Z,40.18
2022-08-26T12:06:36.432Z,39.65
2022-08-26T12:07:35.806Z,39.40
2022-08-26T12:08:34.798Z,39.35
2022-08-26T12:09:34.795Z,39.08
2022-08-26T12:10:34.837Z,38.86
2022-08-26T12:11:34.795Z,38.57
2022-08-26T12:12:36.194Z,38.52
2022-08-26T12:13:35.787Z,38.39
2022-08-26T12:14:34.775Z,38.15
2022-08-26T12:15:34.772Z,38.11
2022-08-26T12:16:34.813Z,37.77
2022-08-26T12:17:34.758Z,37.80
2022-08-26T12:18:34.762Z,37.83
2022-08-26T12:19:34.751Z,37.93
2022-08-26T12:20:34.755Z,37.99
2022-08-26T12:21:35.111Z,37.98
2022-08-26T12:22:34.739Z,37.90
2022-08-26T12:23:34.735Z,37.78
2022-08-26T12:24:34.739Z,37.89
2022-08-26T12:25:36.122Z,37.96
2022-08-26T12:26:34.728Z,37.92
2022-08-26T12:27:34.710Z,37.90
2022-08-26T12:28:34.706Z,37.76
2022-08-26T12:29:34.698Z,37.66
2022-08-26T12:30:34.696Z,37.50
2022-08-26T12:31:34.736Z,37.42
2022-08-26T12:32:34.715Z,37.46
2022-08-26T12:33:34.682Z,37.55
2022-08-26T12:34:34.674Z,37.51
2022-08-26T12:35:34.674Z,37.26
2022-08-26T12:36:34.660Z,37.26
2022-08-26T12:37:34.663Z,37.32
2022-08-26T12:38:34.659Z,37.29
2022-08-26T12:39:34.652Z,37.46
2022-08-26T12:40:34.662Z,37.46
2022-08-26T12:41:34.634Z,37.55
2022-08-26T12:42:34.630Z,37.39
2022-08-26T12:43:34.647Z,36.94
2022-08-26T12:44:34.625Z,36.76
2022-08-26T12:45:35.454Z,36.46
2022-08-26T12:46:36.279Z,36.39
2022-08-26T12:47:42.645Z,36.38
2022-08-26T12:48:36.782Z,36.52
2022-08-26T12:49:34.598Z,36.68
2022-08-26T12:50:34.595Z,36.99
2022-08-26T12:51:34.589Z,37.39
2022-08-26T12:52:34.587Z,37.47
2022-08-26T12:53:34.578Z,37.67
2022-08-26T12:54:34.582Z,37.51